Time;durP1;ratioP1;P1;durP2;ratioP2;P2;SDS_P1;SDS_P2;PMS_P1;PMS_P2;Temp;Humidity;BMP_temperature;BMP_pressure;BME280_temperature;BME280_humidity;BME280_pressure;Samples;Min_cycle;Max_cycle;Signal;HPM_P1;HPM_P2
2023/03/29 00:01:08;;;;;;;;;;;;;;;10.77;52.04;100671.03;4982202;28;7774;-74
2023/03/29 00:03:35;;;;;;;;;;;;;;;10.79;51.64;100663.38;4980862;28;6975;-75
2023/03/29 00:06:02;;;;;;;;;;;;;;;10.80;51.73;100660.03;4976702;28;7284;-75
2023/03/29 00:08:30;;;;;;;;;;;;;;;10.82;51.86;100655.88;4985076;28;6858;-74
2023/03/29 00:10:58;;;;;;;;;;;;;;;10.83;51.77;100649.94;4952944;28;7293;-74
2023/03/29 00:13:26;;;;;;;;;;;;;;;10.85;52.06;100648.34;4962226;28;6844;-74
2023/03/29 00:15:53;;;;;;;;;;;;;;;10.87;51.60;100640.72;4976460;28;7453;-74
2023/03/29 00:18:20;;;;;;;;;;;;;;;10.87;51.80;100641.59;4982235;28;6966;-74
2023/03/29 00:20:45;;;;;;;;;;;;;;;10.89;51.82;100636.53;4968577;28;8607;-74
2023/03/29 00:23:11;;;;;;;;;;;;;;;10.88;51.94;100633.09;4977820;28;6779;-75
2023/03/29 00:25:37;;;;;;;;;;;;;;;10.88;51.68;100630.53;4974192;28;7098;-74
2023/03/29 00:28:02;;;;;;;;;;;;;;;10.90;52.16;100635.75;4984705;28;6971;-74
2023/03/29 00:30:28;;;;;;;;;;;;;;;10.92;51.88;100631.56;4982052;28;6760;-75
2023/03/29 00:32:54;;;;;;;;;;;;;;;10.94;51.42;100632.50;4978864;28;6779;-74
2023/03/29 00:35:19;;;;;;;;;;;;;;;10.96;51.58;100631.78;4978451;28;6855;-74
2023/03/29 00:37:49;;;;;;;;;;;;;;;10.96;51.76;100621.53;4963769;28;6958;-74
2023/03/29 00:40:15;;;;;;;;;;;;;;;10.97;51.78;100625.00;4975467;28;7001;-74
2023/03/29 00:42:45;;;;;;;;;;;;;;;10.98;51.76;100624.19;4977994;28;6979;-74
2023/03/29 00:45:21;;;;;;;;;;;;;;;10.98;51.73;100619.06;4976912;28;7130;-74
2023/03/29 00:48:05;;;;;;;;;;;;;;;10.98;51.36;100625.06;4983141;28;8076;-74
2023/03/29 00:50:47;;;;;;;;;;;;;;;11.00;51.42;100626.81;4975842;28;7279;-74
2023/03/29 00:53:40;;;;;;;;;;;;;;;11.04;51.35;100621.03;4982250;28;7666;-74
2023/03/29 00:56:23;;;;;;;;;;;;;;;11.09;50.66;100605.06;4986890;28;6985;-74
2023/03/29 00:59:23;;;;;;;;;;;;;;;11.19;50.58;100597.81;4982566;28;7706;-74
2023/03/29 01:02:22;;;;;;;;;;;;;;;11.29;50.09;100596.56;4998177;28;7041;-74
2023/03/29 01:05:29;;;;;;;;;;;;;;;11.37;49.84;100587.56;4979377;28;6994;-74
2023/03/29 01:08:06;;;;;;;;;;;;;;;11.44;49.68;100589.63;4982501;28;6867;-74
2023/03/29 01:10:50;;;;;;;;;;;;;;;11.53;48.76;100584.03;4973657;28;6847;-74
2023/03/29 01:13:25;;;;;;;;;;;;;;;11.59;48.67;100579.19;4982041;28;6800;-75
2023/03/29 01:15:55;;;;;;;;;;;;;;;11.64;48.63;100569.13;4998615;28;7011;-74
2023/03/29 01:18:21;;;;;;;;;;;;;;;11.69;48.58;100570.25;4984414;28;6795;-74
2023/03/29 01:21:18;;;;;;;;;;;;;;;11.74;48.52;100562.75;4979226;28;6954;-74
2023/03/29 01:24:05;;;;;;;;;;;;;;;11.76;47.91;100572.25;4979538;28;6992;-74
2023/03/29 01:26:54;;;;;;;;;;;;;;;11.79;47.50;100564.72;4984364;28;7033;-74
2023/03/29 01:29:30;;;;;;;;;;;;;;;11.82;47.97;100561.38;4978973;28;7081;-75
2023/03/29 01:32:43;;;;;;;;;;;;;;;11.88;47.26;100566.81;4981791;28;6792;-74
2023/03/29 01:35:15;;;;;;;;;;;;;;;11.91;47.32;100558.38;4978499;28;6827;-74
2023/03/29 01:38:02;;;;;;;;;;;;;;;11.92;47.31;100560.13;4974624;28;6931;-74
2023/03/29 01:40:29;;;;;;;;;;;;;;;11.93;47.00;100549.94;4979496;28;7248;-74
2023/03/29 01:43:12;;;;;;;;;;;;;;;11.97;47.04;100544.94;4982741;28;6916;-74
2023/03/29 01:46:04;;;;;;;;;;;;;;;11.99;46.67;100551.91;4985452;28;7146;-75
2023/03/29 01:48:58;;;;;;;;;;;;;;;12.04;46.31;100553.00;4984899;28;6812;-74
2023/03/29 01:51:40;;;;;;;;;;;;;;;12.09;46.45;100553.19;4997791;28;7014;-74
2023/03/29 01:54:16;;;;;;;;;;;;;;;12.13;46.38;100549.97;4980249;28;6804;-74
2023/03/29 01:56:47;;;;;;;;;;;;;;;12.17;45.84;100548.41;4984951;28;6788;-74
2023/03/29 01:59:21;;;;;;;;;;;;;;;12.20;45.95;100541.69;4982603;28;6990;-74
2023/03/29 02:01:59;;;;;;;;;;;;;;;12.23;45.32;100543.53;4996535;28;6823;-74
2023/03/29 02:04:33;;;;;;;;;;;;;;;12.26;45.67;100541.09;4980572;28;7300;-74
2023/03/29 02:07:03;;;;;;;;;;;;;;;12.29;45.14;100536.09;4979862;28;7197;-74
2023/03/29 02:09:32;;;;;;;;;;;;;;;12.33;45.50;100527.69;4983148;28;7054;-74
2023/03/29 02:12:01;;;;;;;;;;;;;;;12.36;45.47;100520.13;4979267;28;6811;-74
2023/03/29 02:14:28;;;;;;;;;;;;;;;12.39;44.48;100519.34;4983562;28;7942;-75
2023/03/29 02:16:53;;;;;;;;;;;;;;;12.42;44.45;100523.75;4981851;28;6803;-74
2023/03/29 02:19:23;;;;;;;;;;;;;;;12.45;44.78;100517.06;4986381;28;6813;-75
2023/03/29 02:22:06;;;;;;;;;;;;;;;12.47;44.15;100518.00;5000813;28;6921;-74
2023/03/29 02:24:35;;;;;;;;;;;;;;;12.52;44.34;100519.91;4984606;28;7019;-74
2023/03/29 02:27:02;;;;;;;;;;;;;;;12.54;44.27;100513.97;4998753;28;6791;-75
2023/03/29 02:29:29;;;;;;;;;;;;;;;12.57;44.25;100510.66;4980292;28;6788;-74
2023/03/29 02:32:09;;;;;;;;;;;;;;;12.59;44.40;100509.94;4980780;28;7118;-74
2023/03/29 02:34:50;;;;;;;;;;;;;;;12.60;44.84;100509.09;4977915;28;7015;-74
2023/03/29 02:37:21;;;;;;;;;;;;;;;12.63;44.42;100500.66;4979301;28;6852;-74
2023/03/29 02:39:50;;;;;;;;;;;;;;;12.63;44.18;100505.78;4964695;28;7070;-75
2023/03/29 02:42:19;;;;;;;;;;;;;;;12.64;44.11;100510.13;4981360;28;7275;-75
2023/03/29 02:44:50;;;;;;;;;;;;;;;12.64;43.87;100505.84;4981289;28;6987;-74
2023/03/29 02:47:32;;;;;;;;;;;;;;;12.67;44.23;100496.50;4977837;28;6804;-74
2023/03/29 02:49:58;;;;;;;;;;;;;;;12.69;44.57;100497.44;4980709;28;7868;-75
2023/03/29 02:52:35;;;;;;;;;;;;;;;12.70;43.64;100489.81;4974557;28;6829;-74
2023/03/29 02:55:13;;;;;;;;;;;;;;;12.73;43.63;100478.75;4974296;28;7000;-74
2023/03/29 02:57:39;;;;;;;;;;;;;;;12.76;44.10;100482.31;4976354;28;10136;-76
2023/03/29 03:00:09;;;;;;;;;;;;;;;12.80;44.40;100488.47;4968691;28;6829;-74
2023/03/29 03:02:38;;;;;;;;;;;;;;;12.82;44.54;100481.69;4984413;28;12764;-75
2023/03/29 03:05:05;;;;;;;;;;;;;;;12.84;43.98;100481.75;4975809;28;6808;-76
2023/03/29 03:07:32;;;;;;;;;;;;;;;12.86;44.23;100490.41;4978433;28;7080;-76
2023/03/29 03:09:58;;;;;;;;;;;;;;;12.88;44.13;100475.91;4975986;28;6982;-74
2023/03/29 03:12:24;;;;;;;;;;;;;;;12.88;43.43;100478.47;4992511;28;7116;-74
2023/03/29 03:14:50;;;;;;;;;;;;;;;12.88;44.10;100471.66;4974660;28;6950;-76
2023/03/29 03:17:17;;;;;;;;;;;;;;;12.86;43.77;100465.56;4965781;28;6989;-76
2023/03/29 03:19:43;;;;;;;;;;;;;;;12.86;43.78;100465.56;4981826;28;6871;-76
2023/03/29 03:22:08;;;;;;;;;;;;;;;12.86;43.51;100463.00;4984325;28;6802;-74
2023/03/29 03:24:34;;;;;;;;;;;;;;;12.86;44.10;100463.00;4983249;28;6849;-74
2023/03/29 03:27:00;;;;;;;;;;;;;;;12.87;43.76;100461.28;4980820;28;6819;-76
2023/03/29 03:29:27;;;;;;;;;;;;;;;12.87;43.33;100457.03;4984342;28;6772;-75
2023/03/29 03:31:53;;;;;;;;;;;;;;;12.88;44.00;100453.66;4981529;28;6803;-76
2023/03/29 03:34:19;;;;;;;;;;;;;;;12.88;43.92;100457.91;4962400;28;8676;-76
2023/03/29 03:36:46;;;;;;;;;;;;;;;12.87;43.77;100451.91;4983143;28;6812;-75
2023/03/29 03:39:13;;;;;;;;;;;;;;;12.88;43.47;100450.19;4968286;28;7003;-76
2023/03/29 03:41:39;;;;;;;;;;;;;;;12.87;43.93;100457.03;4981433;28;6792;-76
2023/03/29 03:44:05;;;;;;;;;;;;;;;12.89;44.01;100454.50;4981414;28;6784;-74
2023/03/29 03:46:30;;;;;;;;;;;;;;;12.88;44.06;100451.06;4971331;28;8525;-76
2023/03/29 03:48:58;;;;;;;;;;;;;;;12.87;43.54;100451.00;4985954;28;6858;-76
2023/03/29 03:51:24;;;;;;;;;;;;;;;12.88;43.54;100457.91;4981110;28;7075;-76
2023/03/29 03:53:50;;;;;;;;;;;;;;;12.88;44.01;100463.94;4985534;28;6851;-76
2023/03/29 03:56:16;;;;;;;;;;;;;;;12.90;43.86;100462.28;4966484;28;7003;-75
2023/03/29 03:58:42;;;;;;;;;;;;;;;12.89;44.19;100460.53;4980661;28;6848;-74
2023/03/29 04:01:08;;;;;;;;;;;;;;;12.93;43.59;100461.53;4976100;28;6869;-76
2023/03/29 04:03:34;;;;;;;;;;;;;;;12.92;44.26;100458.09;4985150;28;6788;-74
2023/03/29 04:06:02;;;;;;;;;;;;;;;12.94;44.29;100464.97;4979061;28;6792;-76
2023/03/29 04:08:29;;;;;;;;;;;;;;;12.95;44.14;100466.75;4990424;28;7051;-76
2023/03/29 04:10:57;;;;;;;;;;;;;;;12.96;44.03;100460.78;4987774;28;6848;-76
2023/03/29 04:13:25;;;;;;;;;;;;;;;12.96;43.85;100465.94;4989058;28;7004;-76
2023/03/29 04:15:55;;;;;;;;;;;;;;;12.97;44.57;100457.41;4967069;28;8558;-76
2023/03/29 04:18:22;;;;;;;;;;;;;;;12.99;44.60;100460.91;4980630;28;6816;-76
2023/03/29 04:20:49;;;;;;;;;;;;;;;13.00;44.20;100454.94;4983300;28;6784;-76
2023/03/29 04:23:15;;;;;;;;;;;;;;;13.02;43.72;100453.28;4982315;28;6816;-76
2023/03/29 04:25:41;;;;;;;;;;;;;;;13.03;43.73;100450.78;4983816;28;8458;-76
2023/03/29 04:28:08;;;;;;;;;;;;;;;13.06;44.30;100443.19;4970349;28;8991;-76
2023/03/29 04:30:34;;;;;;;;;;;;;;;13.10;44.08;100448.47;4983051;28;6804;-75
2023/03/29 04:33:00;;;;;;;;;;;;;;;13.11;44.01;100439.94;4979792;28;6772;-76
2023/03/29 04:35:25;;;;;;;;;;;;;;;13.11;43.92;100438.22;4985485;28;7317;-75
2023/03/29 04:37:53;;;;;;;;;;;;;;;13.13;44.36;100434.00;4984605;28;7167;-76
2023/03/29 04:40:19;;;;;;;;;;;;;;;13.14;44.29;100435.78;4987109;28;6800;-76
2023/03/29 04:42:46;;;;;;;;;;;;;;;13.14;43.88;100440.94;5000696;28;6809;-76
2023/03/29 04:45:18;;;;;;;;;;;;;;;13.15;44.28;100434.97;4982759;28;6983;-76
2023/03/29 04:47:45;;;;;;;;;;;;;;;13.17;43.95;100440.16;4967613;28;6983;-76
2023/03/29 04:50:12;;;;;;;;;;;;;;;13.17;43.71;100441.03;4969142;28;7132;-75
2023/03/29 04:52:38;;;;;;;;;;;;;;;13.18;44.02;100440.22;4983664;28;6784;-76
2023/03/29 04:55:06;;;;;;;;;;;;;;;13.19;44.00;100439.38;4969803;28;7200;-76
2023/03/29 04:57:33;;;;;;;;;;;;;;;13.20;43.64;100441.13;4984771;28;6784;-76
2023/03/29 04:59:58;;;;;;;;;;;;;;;13.22;44.18;100450.63;4978652;28;7249;-74
2023/03/29 05:02:24;;;;;;;;;;;;;;;13.23;44.17;100440.38;4991301;28;7030;-76
2023/03/29 05:04:50;;;;;;;;;;;;;;;13.24;44.18;100444.72;4976620;28;7341;-77
2023/03/29 05:07:16;;;;;;;;;;;;;;;13.25;44.14;100437.88;4957085;28;6963;-76
2023/03/29 05:09:42;;;;;;;;;;;;;;;13.25;44.63;100438.75;4964410;28;7081;-76
2023/03/29 05:12:08;;;;;;;;;;;;;;;13.25;43.89;100433.59;4977302;28;6784;-76
2023/03/29 05:14:33;;;;;;;;;;;;;;;13.26;44.20;100434.47;4980676;28;6830;-75
2023/03/29 05:17:00;;;;;;;;;;;;;;;13.29;44.81;100437.16;4965351;28;9680;-73
2023/03/29 05:19:26;;;;;;;;;;;;;;;13.30;44.34;100438.91;4967146;28;7189;-74
2023/03/29 05:21:52;;;;;;;;;;;;;;;13.29;44.61;100434.59;4984877;28;6868;-76
2023/03/29 05:24:19;;;;;;;;;;;;;;;13.31;44.59;100438.09;4966121;28;7261;-76
2023/03/29 05:26:46;;;;;;;;;;;;;;;13.33;44.70;100441.63;4956975;28;8741;-74
2023/03/29 05:29:12;;;;;;;;;;;;;;;13.35;44.20;100432.25;4982674;28;6784;-75
2023/03/29 05:31:39;;;;;;;;;;;;;;;13.37;45.08;100433.19;4974257;28;6848;-75
2023/03/29 05:34:05;;;;;;;;;;;;;;;13.39;44.41;100435.81;4964077;28;8364;-77
2023/03/29 05:36:32;;;;;;;;;;;;;;;13.41;45.20;100437.63;4977937;28;7235;-76
2023/03/29 05:38:58;;;;;;;;;;;;;;;13.42;44.80;100431.66;4979217;28;7089;-76
2023/03/29 05:41:25;;;;;;;;;;;;;;;13.44;44.53;100434.28;4983576;28;7180;-74
2023/03/29 05:43:51;;;;;;;;;;;;;;;13.46;45.32;100430.97;4985448;28;7158;-76
2023/03/29 05:46:16;;;;;;;;;;;;;;;13.49;44.76;100430.22;4975955;28;6776;-76
2023/03/29 05:48:42;;;;;;;;;;;;;;;13.50;44.39;100429.41;4973966;28;7063;-76
2023/03/29 05:51:08;;;;;;;;;;;;;;;13.52;44.87;100432.91;4981704;28;6836;-76
2023/03/29 05:53:34;;;;;;;;;;;;;;;13.53;44.72;100432.06;4995621;28;6986;-76
2023/03/29 05:56:00;;;;;;;;;;;;;;;13.58;45.59;100427.09;4981805;28;8500;-76
2023/03/29 05:58:27;;;;;;;;;;;;;;;13.59;45.49;100421.13;4981974;28;6784;-77
2023/03/29 06:00:53;;;;;;;;;;;;;;;13.63;44.89;100432.41;4994970;28;7151;-73
2023/03/29 06:03:24;;;;;;;;;;;;;;;13.65;44.74;100431.66;4980598;28;7201;-75
2023/03/29 06:06:02;;;;;;;;;;;;;;;13.69;45.89;100427.50;4971605;28;6792;-77
2023/03/29 06:08:30;;;;;;;;;;;;;;;13.71;45.08;100426.72;4972250;28;7149;-77
2023/03/29 06:11:02;;;;;;;;;;;;;;;13.74;45.20;100423.34;4980519;28;7136;-77
2023/03/29 06:13:29;;;;;;;;;;;;;;;13.78;45.65;100430.41;4981939;28;6808;-74
2023/03/29 06:15:55;;;;;;;;;;;;;;;13.80;45.74;100435.56;4985177;28;6868;-76
2023/03/29 06:18:22;;;;;;;;;;;;;;;13.77;45.20;100431.22;4982104;28;7280;-77
2023/03/29 06:20:52;;;;;;;;;;;;;;;13.73;46.45;100431.91;4968306;28;7249;-76
2023/03/29 06:23:19;;;;;;;;;;;;;;;13.73;46.09;100437.06;4979766;28;7398;-77
2023/03/29 06:25:46;;;;;;;;;;;;;;;13.77;45.53;100432.91;4962229;28;8573;-75
2023/03/29 06:28:13;;;;;;;;;;;;;;;13.83;46.54;100443.44;4980218;28;6860;-77
2023/03/29 06:30:40;;;;;;;;;;;;;;;13.91;46.06;100433.38;4962153;28;7289;-77
2023/03/29 06:33:07;;;;;;;;;;;;;;;13.98;46.22;100441.38;4979417;28;6796;-76
2023/03/29 06:35:35;;;;;;;;;;;;;;;14.04;45.75;100430.41;4949508;28;6983;-77
2023/03/29 06:38:02;;;;;;;;;;;;;;;14.09;45.95;100434.03;4991141;28;6828;-74
2023/03/29 06:40:29;;;;;;;;;;;;;;;14.17;46.28;100429.13;4976519;28;7522;-77
2023/03/29 06:42:59;;;;;;;;;;;;;;;14.25;46.06;100430.25;4977011;28;7172;-77
2023/03/29 06:45:28;;;;;;;;;;;;;;;14.33;45.40;100427.94;4965092;28;7272;-77
2023/03/29 06:47:54;;;;;;;;;;;;;;;14.41;45.70;100430.78;4962042;28;7235;-77
2023/03/29 06:50:21;;;;;;;;;;;;;;;14.51;46.11;100439.69;4988585;28;6788;-73
2023/03/29 06:52:46;;;;;;;;;;;;;;;14.61;45.57;100440.88;4968881;28;7150;-75
2023/03/29 06:55:13;;;;;;;;;;;;;;;14.70;45.78;100444.59;4964983;28;7016;-77
2023/03/29 06:57:39;;;;;;;;;;;;;;;14.79;45.73;100441.47;4956908;28;7601;-77
2023/03/29 07:00:40;;;;;;;;;;;;;;;14.86;45.86;100442.53;4971785;28;7194;-77
2023/03/29 07:03:02;;;;;;;;;;;;;;;14.93;45.72;100438.44;4978190;28;11281;-77
2023/03/29 07:05:29;;;;;;;;;;;;;;;14.97;45.09;100442.88;4960670;28;6977;-78
2023/03/29 07:08:30;;;;;;;;;;;;;;;14.99;45.39;100446.38;4977362;28;6792;-73
2023/03/29 07:10:51;;;;;;;;;;;;;;;15.01;45.02;100442.13;4977949;28;6984;-74
2023/03/29 07:13:17;;;;;;;;;;;;;;;15.04;45.76;100449.97;4968381;28;6994;-74
2023/03/29 07:15:43;;;;;;;;;;;;;;;15.08;45.27;100444.09;4977653;28;6783;-74
2023/03/29 07:18:11;;;;;;;;;;;;;;;15.13;45.33;100437.34;4982117;28;6788;-74
2023/03/29 07:20:37;;;;;;;;;;;;;;;15.19;45.69;100430.63;4978530;28;7052;-74
2023/03/29 07:23:05;;;;;;;;;;;;;;;15.24;45.70;100440.25;4980234;28;6804;-74
2023/03/29 07:25:31;;;;;;;;;;;;;;;15.32;45.19;100443.03;4984258;28;6795;-74
2023/03/29 07:27:56;;;;;;;;;;;;;;;15.40;44.83;100444.16;4970310;28;7050;-74
2023/03/29 07:30:29;;;;;;;;;;;;;;;15.47;44.91;100454.66;4985159;28;6925;-74
2023/03/29 07:32:57;;;;;;;;;;;;;;;15.55;44.90;100453.19;4998900;28;6815;-74
2023/03/29 07:35:25;;;;;;;;;;;;;;;15.63;45.10;100443.91;4976054;28;8119;-74
2023/03/29 07:37:51;;;;;;;;;;;;;;;15.71;44.91;100448.44;4985574;28;6784;-74
2023/03/29 07:40:22;;;;;;;;;;;;;;;15.77;44.64;100439.13;4980668;28;8027;-74
2023/03/29 07:42:53;;;;;;;;;;;;;;;15.86;44.61;100440.22;4969109;28;7411;-74
2023/03/29 07:45:22;;;;;;;;;;;;;;;15.91;44.36;100449.03;4964046;28;7154;-74
2023/03/29 07:47:52;;;;;;;;;;;;;;;15.98;44.74;100447.47;4973753;28;6979;-74
2023/03/29 07:50:18;;;;;;;;;;;;;;;16.05;44.51;100446.81;4984664;28;6816;-74
2023/03/29 07:52:44;;;;;;;;;;;;;;;16.10;44.23;100453.84;4964053;28;6963;-74
2023/03/29 07:55:12;;;;;;;;;;;;;;;16.14;44.37;100453.91;4950697;28;7152;-74
2023/03/29 07:57:38;;;;;;;;;;;;;;;16.18;43.87;100461.78;4972538;28;6993;-74
2023/03/29 08:00:14;;;;;;;;;;;;;;;16.22;44.18;100470.50;4963142;28;7249;-74
2023/03/29 08:02:51;;;;;;;;;;;;;;;16.26;44.19;100469.72;4981395;28;11367;-74
2023/03/29 08:05:19;;;;;;;;;;;;;;;16.26;44.12;100472.31;4967545;28;6973;-74
2023/03/29 08:07:45;;;;;;;;;;;;;;;16.24;43.79;100471.41;4992302;28;6796;-74
2023/03/29 08:10:16;;;;;;;;;;;;;;;16.24;43.60;100472.31;4983285;28;6791;-74
2023/03/29 08:12:43;;;;;;;;;;;;;;;16.24;43.90;100464.53;4977812;28;7632;-73
2023/03/29 08:15:09;;;;;;;;;;;;;;;16.28;43.89;100462.03;4981610;28;6996;-73
2023/03/29 08:17:36;;;;;;;;;;;;;;;16.33;44.04;100466.47;4982400;28;6815;-74
2023/03/29 08:20:04;;;;;;;;;;;;;;;16.38;43.68;100471.75;4983180;28;7274;-74
2023/03/29 08:22:34;;;;;;;;;;;;;;;16.40;43.86;100466.66;4981189;28;7180;-74
2023/03/29 08:25:00;;;;;;;;;;;;;;;16.41;43.67;100469.25;4983829;28;6886;-74
2023/03/29 08:27:26;;;;;;;;;;;;;;;16.46;43.92;100465.06;4967856;28;7156;-74
2023/03/29 08:29:51;;;;;;;;;;;;;;;16.54;44.08;100467.84;4982139;28;7062;-74
2023/03/29 08:32:17;;;;;;;;;;;;;;;16.61;44.05;100468.88;4965443;28;6951;-75
2023/03/29 08:34:43;;;;;;;;;;;;;;;16.68;43.49;100465.59;4963159;28;8528;-74
2023/03/29 08:37:09;;;;;;;;;;;;;;;16.75;44.15;100456.25;4983264;28;6779;-74
2023/03/29 08:39:36;;;;;;;;;;;;;;;16.82;44.05;100463.34;4985437;28;6804;-74
2023/03/29 08:42:11;;;;;;;;;;;;;;;16.90;43.76;100455.72;4984021;28;6991;-74
2023/03/29 08:45:07;;;;;;;;;;;;;;;16.97;43.59;100461.94;4982369;28;6991;-74
2023/03/29 08:48:03;;;;;;;;;;;;;;;16.97;43.27;100447.28;4981733;28;6812;-74
2023/03/29 08:50:37;;;;;;;;;;;;;;;17.01;42.94;100454.31;4976361;28;7143;-74
2023/03/29 08:53:43;;;;;;;;;;;;;;;17.03;43.18;100457.81;4995202;28;6829;-74
2023/03/29 08:56:31;;;;;;;;;;;;;;;17.08;43.34;100461.38;4973600;28;7277;-74
2023/03/29 08:58:58;;;;;;;;;;;;;;;17.16;43.29;100458.97;4981094;28;6813;-74
2023/03/29 09:01:33;;;;;;;;;;;;;;;17.18;43.12;100461.56;4982466;28;6953;-74
2023/03/29 09:04:39;;;;;;;;;;;;;;;17.19;42.66;100465.91;4956778;28;7958;-74
2023/03/29 09:07:09;;;;;;;;;;;;;;;17.14;42.88;100463.25;4966802;28;7234;-74
2023/03/29 09:09:36;;;;;;;;;;;;;;;17.13;43.11;100456.28;4978853;28;6852;-74
2023/03/29 09:12:17;;;;;;;;;;;;;;;17.14;43.00;100459.75;4990878;28;6993;-72
2023/03/29 09:15:14;;;;;;;;;;;;;;;17.13;42.65;100455.44;4986932;28;7113;-70
2023/03/29 09:17:50;;;;;;;;;;;;;;;17.11;42.60;100455.38;4992407;28;7255;-72
2023/03/29 09:21:00;;;;;;;;;;;;;;;17.10;42.77;100463.13;4984297;28;6994;-71
2023/03/29 09:23:47;;;;;;;;;;;;;;;17.10;42.93;100463.13;4986047;28;6832;-71
2023/03/29 09:26:38;;;;;;;;;;;;;;;17.07;42.74;100461.34;4984227;28;6804;-71
2023/03/29 09:29:44;;;;;;;;;;;;;;;17.01;42.52;100450.84;4981878;28;6812;-71
2023/03/29 09:32:52;;;;;;;;;;;;;;;16.95;42.65;100461.91;4981968;28;7223;-71
2023/03/29 09:35:36;;;;;;;;;;;;;;;16.93;43.05;100455.81;4960171;28;7681;-72
2023/03/29 09:38:06;;;;;;;;;;;;;;;16.92;42.66;100451.50;4985248;28;6980;-71
2023/03/29 09:41:04;;;;;;;;;;;;;;;16.96;42.93;100449.84;4963668;28;7126;-71
2023/03/29 09:43:36;;;;;;;;;;;;;;;17.00;43.42;100441.31;4984212;28;6812;-74
2023/03/29 09:46:21;;;;;;;;;;;;;;;17.07;42.77;100451.84;4987143;28;6796;-72
2023/03/29 09:48:49;;;;;;;;;;;;;;;17.13;42.88;100442.47;4980338;28;6800;-70
2023/03/29 09:51:20;;;;;;;;;;;;;;;17.19;42.72;100432.22;4984641;28;6986;-70
2023/03/29 09:53:46;;;;;;;;;;;;;;;17.24;42.69;100440.09;4985374;28;6860;-71
2023/03/29 09:56:14;;;;;;;;;;;;;;;17.29;42.50;100436.78;4986407;28;6808;-72
2023/03/29 09:58:42;;;;;;;;;;;;;;;17.34;42.65;100447.25;4987527;28;6915;-69
2023/03/29 10:01:19;;;;;;;;;;;;;;;17.40;42.75;100452.53;4981476;28;6796;-71
2023/03/29 10:03:52;;;;;;;;;;;;;;;17.50;42.84;100435.50;4979536;28;7011;-71
2023/03/29 10:06:22;;;;;;;;;;;;;;;17.58;42.77;100436.50;4980222;28;7626;-71
2023/03/29 10:08:58;;;;;;;;;;;;;;;17.68;42.85;100429.78;4978049;28;6999;-72
2023/03/29 10:11:35;;;;;;;;;;;;;;;17.79;42.69;100424.81;4982870;28;6795;-71
2023/03/29 10:14:30;;;;;;;;;;;;;;;17.95;43.02;100425.06;4994349;28;6792;-70
2023/03/29 10:16:57;;;;;;;;;;;;;;;18.11;42.87;100419.34;4986455;28;6911;-69
2023/03/29 10:19:27;;;;;;;;;;;;;;;18.27;42.93;100419.63;5000788;28;6983;-69
2023/03/29 10:21:54;;;;;;;;;;;;;;;18.44;42.09;100418.16;4982575;28;7761;-71
2023/03/29 10:24:22;;;;;;;;;;;;;;;18.63;42.05;100420.19;4979480;28;6894;-71
2023/03/29 10:26:59;;;;;;;;;;;;;;;18.78;42.10;100419.53;4982021;28;6792;-73
2023/03/29 10:29:26;;;;;;;;;;;;;;;18.92;41.53;100422.31;4979930;28;6804;-73
2023/03/29 10:31:53;;;;;;;;;;;;;;;19.03;41.72;100419.91;4980560;28;6796;-71
2023/03/29 10:34:24;;;;;;;;;;;;;;;19.17;41.35;100417.47;4976509;28;6943;-72
2023/03/29 10:37:00;;;;;;;;;;;;;;;19.36;41.44;100418.59;4979430;28;6860;-71
2023/03/29 10:39:33;;;;;;;;;;;;;;;19.45;41.69;100408.31;4982792;28;6955;-70
2023/03/29 10:42:03;;;;;;;;;;;;;;;19.46;40.71;100399.66;4978228;28;6808;-70
2023/03/29 10:44:35;;;;;;;;;;;;;;;19.43;40.87;100403.09;4980565;28;6788;-74
2023/03/29 10:47:19;;;;;;;;;;;;;;;19.37;40.98;100399.53;4968369;28;8859;-74
2023/03/29 10:49:54;;;;;;;;;;;;;;;19.32;41.43;100385.66;4969024;28;7276;-70
2023/03/29 10:52:21;;;;;;;;;;;;;;;19.33;41.21;100395.19;4996402;28;6942;-72
2023/03/29 10:54:51;;;;;;;;;;;;;;;19.39;41.27;100396.13;4984523;28;7199;-72
2023/03/29 10:57:49;;;;;;;;;;;;;;;19.53;41.50;100398.88;4987915;28;6849;-71
2023/03/29 11:00:27;;;;;;;;;;;;;;;19.65;41.20;100399.84;4983831;28;7283;-71
2023/03/29 11:03:17;;;;;;;;;;;;;;;19.75;41.11;100398.22;4973772;28;7070;-70
2023/03/29 11:05:45;;;;;;;;;;;;;;;19.81;41.45;100400.88;4983033;28;6999;-69
2023/03/29 11:08:42;;;;;;;;;;;;;;;19.86;40.67;100399.22;4986823;28;6800;-69
2023/03/29 11:11:40;;;;;;;;;;;;;;;19.87;40.92;100387.06;4971844;28;8858;-70
2023/03/29 11:14:25;;;;;;;;;;;;;;;19.85;40.89;100387.91;4983650;28;7061;-70
2023/03/29 11:17:33;;;;;;;;;;;;;;;19.88;40.82;100371.47;4977728;28;6804;-73
2023/03/29 11:20:11;;;;;;;;;;;;;;;19.96;41.06;100361.16;4979378;28;7464;-73
2023/03/29 11:23:10;;;;;;;;;;;;;;;20.24;40.91;100364.00;4983381;28;6846;-73
2023/03/29 11:25:59;;;;;;;;;;;;;;;20.74;40.73;100370.41;4983948;28;7155;-74
2023/03/29 11:28:44;;;;;;;;;;;;;;;21.10;40.33;100362.78;4980855;28;6796;-73
2023/03/29 11:31:34;;;;;;;;;;;;;;;21.54;39.86;100349.91;4982622;28;6876;-74
2023/03/29 11:34:23;;;;;;;;;;;;;;;22.12;39.20;100356.06;4985527;28;6808;-74
2023/03/29 11:37:12;;;;;;;;;;;;;;;22.82;38.15;100348.09;4984361;28;6811;-74
2023/03/29 11:40:08;;;;;;;;;;;;;;;23.50;37.91;100349.53;4979675;28;6804;-74
2023/03/29 11:42:41;;;;;;;;;;;;;;;24.03;36.86;100343.91;4974380;28;6966;-74
2023/03/29 11:45:17;;;;;;;;;;;;;;;24.31;35.55;100333.22;4975204;28;7022;-74
2023/03/29 11:47:47;;;;;;;;;;;;;;;24.45;35.40;100336.56;4983593;28;7010;-74
2023/03/29 11:50:26;;;;;;;;;;;;;;;24.72;35.00;100346.75;4981827;28;6950;-74
2023/03/29 11:53:02;;;;;;;;;;;;;;;25.07;34.83;100340.25;4978537;28;7830;-74
2023/03/29 11:55:35;;;;;;;;;;;;;;;25.36;34.33;100342.44;4975891;28;7058;-74
2023/03/29 11:58:41;;;;;;;;;;;;;;;25.28;33.84;100328.56;4979412;28;6922;-74
2023/03/29 12:01:16;;;;;;;;;;;;;;;24.74;33.37;100335.38;4982224;28;6853;-74
2023/03/29 12:04:01;;;;;;;;;;;;;;;24.27;34.33;100340.22;4982217;28;6808;-74
2023/03/29 12:06:47;;;;;;;;;;;;;;;24.14;35.10;100339.47;4984972;28;7307;-73
2023/03/29 12:09:40;;;;;;;;;;;;;;;24.00;34.74;100340.44;4987569;28;7023;-73
2023/03/29 12:12:23;;;;;;;;;;;;;;;23.83;34.92;100335.34;4979290;28;7235;-73
2023/03/29 12:15:14;;;;;;;;;;;;;;;23.63;35.10;100338.09;4978920;28;7086;-73
2023/03/29 12:18:05;;;;;;;;;;;;;;;23.43;35.25;100338.25;4974665;28;7644;-73
2023/03/29 12:20:39;;;;;;;;;;;;;;;23.15;35.77;100326.16;4979064;28;6864;-73
2023/03/29 12:23:11;;;;;;;;;;;;;;;22.93;36.03;100329.78;4980643;28;6875;-73
2023/03/29 12:25:44;;;;;;;;;;;;;;;22.74;36.42;100324.63;4982396;28;6807;-73
2023/03/29 12:28:47;;;;;;;;;;;;;;;22.67;36.77;100331.59;4983974;28;7000;-73
2023/03/29 12:31:22;;;;;;;;;;;;;;;22.74;36.73;100324.63;4983848;28;6875;-73
2023/03/29 12:34:24;;;;;;;;;;;;;;;22.87;36.39;100339.34;4979648;28;6879;-73
2023/03/29 12:37:35;;;;;;;;;;;;;;;22.85;36.33;100337.66;4963891;28;7427;-72
2023/03/29 12:40:12;;;;;;;;;;;;;;;22.87;37.05;100338.50;4985175;28;6839;-73
2023/03/29 12:42:50;;;;;;;;;;;;;;;22.95;36.78;100326.28;4974870;28;7526;-73
2023/03/29 12:45:41;;;;;;;;;;;;;;;23.06;36.69;100331.44;4978525;28;7136;-73
2023/03/29 12:48:19;;;;;;;;;;;;;;;23.17;36.44;100324.41;4996535;28;7176;-73
2023/03/29 12:50:59;;;;;;;;;;;;;;;23.26;36.70;100320.88;4983894;28;6812;-72
2023/03/29 12:53:44;;;;;;;;;;;;;;;23.21;36.12;100319.19;4986331;28;6800;-73
2023/03/29 12:56:18;;;;;;;;;;;;;;;23.00;35.76;100324.50;4984286;28;7330;-73
2023/03/29 12:59:16;;;;;;;;;;;;;;;22.80;36.30;100324.59;5000937;28;6799;-73
2023/03/29 13:02:03;;;;;;;;;;;;;;;22.55;36.49;100313.34;4973455;28;7031;-72
2023/03/29 13:04:47;;;;;;;;;;;;;;;22.39;36.70;100309.88;4982042;28;6827;-73
2023/03/29 13:07:22;;;;;;;;;;;;;;;22.28;37.08;100300.31;4978182;28;6942;-73
2023/03/29 13:10:14;;;;;;;;;;;;;;;22.29;37.54;100289.00;4980822;28;7789;-72
2023/03/29 13:12:48;;;;;;;;;;;;;;;22.37;37.41;100282.91;4982696;28;6808;-73
2023/03/29 13:15:14;;;;;;;;;;;;;;;22.45;37.70;100281.16;4976531;28;7114;-73
2023/03/29 13:17:58;;;;;;;;;;;;;;;22.56;37.74;100263.72;4977330;28;6997;-73
2023/03/29 13:21:01;;;;;;;;;;;;;;;22.59;37.52;100260.25;4981900;28;8492;-72